Time;durP1;ratioP1;P1;durP2;ratioP2;P2;SDS_P1;SDS_P2;PMS_P1;PMS_P2;Temp;Humidity;BMP_temperature;BMP_pressure;BME280_temperature;BME280_humidity;BME280_pressure;Samples;Min_cycle;Max_cycle;Signal;HPM_P1;HPM_P2
2023/04/14 00:01:55;;;;;;;0.93;0.40;;;8.50;99.90;;;;;;5096751;28;20438;-55
2023/04/14 00:04:22;;;;;;;1.35;0.40;;;8.50;99.90;;;;;;5096560;28;20428;-54
2023/04/14 00:06:50;;;;;;;1.30;0.40;;;8.40;99.90;;;;;;5095340;28;20430;-55
2023/04/14 00:09:18;;;;;;;1.00;0.40;;;8.30;99.90;;;;;;5095881;28;20433;-54
2023/04/14 00:11:45;;;;;;;1.00;0.50;;;8.30;99.90;;;;;;5095453;28;20422;-56
2023/04/14 00:14:13;;;;;;;1.00;0.50;;;8.30;99.90;;;;;;5097269;28;20429;-56
2023/04/14 00:16:41;;;;;;;1.05;0.40;;;8.40;99.90;;;;;;5095304;28;20432;-56
2023/04/14 00:19:09;;;;;;;0.70;0.35;;;8.50;99.90;;;;;;5096028;28;20520;-55
2023/04/14 00:21:36;;;;;;;1.70;0.40;;;8.50;99.90;;;;;;5095849;28;20729;-54
2023/04/14 00:24:03;;;;;;;1.15;0.40;;;8.50;99.90;;;;;;5096167;28;20418;-56
2023/04/14 00:26:33;;;;;;;1.10;0.40;;;8.40;99.90;;;;;;5096857;28;20422;-54
2023/04/14 00:29:00;;;;;;;0.90;0.40;;;8.50;99.90;;;;;;5096640;28;20414;-54
2023/04/14 00:31:27;;;;;;;1.40;0.40;;;8.50;99.90;;;;;;5096045;28;20448;-53
2023/04/14 00:33:54;;;;;;;1.30;0.40;;;8.40;99.90;;;;;;5094770;28;20718;-56
2023/04/14 00:36:22;;;;;;;0.80;0.40;;;8.50;99.90;;;;;;5095716;28;20424;-54
2023/04/14 00:38:49;;;;;;;0.80;0.40;;;8.40;99.90;;;;;;5095815;28;20793;-53
2023/04/14 00:41:16;;;;;;;1.83;0.47;;;8.40;99.90;;;;;;5095990;28;20471;-54
2023/04/14 00:43:45;;;;;;;0.82;0.40;;;8.30;99.90;;;;;;5096415;28;20482;-55
2023/04/14 00:46:15;;;;;;;0.93;0.40;;;8.20;99.90;;;;;;5096469;28;20424;-57
2023/04/14 00:48:42;;;;;;;1.50;0.30;;;8.20;99.90;;;;;;5095474;28;20422;-57
2023/04/14 00:51:10;;;;;;;1.27;0.40;;;8.20;99.90;;;;;;5095855;28;20428;-56
2023/04/14 00:53:37;;;;;;;0.68;0.30;;;8.20;99.90;;;;;;5096090;28;20425;-52
2023/04/14 00:56:05;;;;;;;0.80;0.40;;;8.20;99.90;;;;;;5096101;28;20841;-55
2023/04/14 00:58:32;;;;;;;1.20;0.40;;;8.20;99.90;;;;;;5095532;28;20429;-55
2023/04/14 01:01:01;;;;;;;1.42;0.50;;;8.30;99.90;;;;;;5095925;28;20418;-55
2023/04/14 01:03:28;;;;;;;1.20;0.40;;;8.20;99.90;;;;;;5095854;28;20860;-56
2023/04/14 01:05:55;;;;;;;1.10;0.60;;;8.20;99.90;;;;;;5096018;28;20420;-54
2023/04/14 01:08:23;;;;;;;1.50;0.40;;;8.10;99.90;;;;;;5095851;28;20426;-53
2023/04/14 01:11:02;;;;;;;1.10;0.40;;;7.80;99.90;;;;;;5094722;28;20516;-52
2023/04/14 01:13:35;;;;;;;0.85;0.40;;;7.80;99.90;;;;;;5094127;28;20410;-52
2023/04/14 01:16:12;;;;;;;2.03;0.43;;;8.00;99.90;;;;;;5095284;28;20424;-56
2023/04/14 01:18:47;;;;;;;1.20;0.50;;;7.90;99.90;;;;;;5094837;28;20418;-56
2023/04/14 01:21:17;;;;;;;0.60;0.40;;;7.80;99.90;;;;;;5094777;28;20418;-58
2023/04/14 01:24:04;;;;;;;1.20;0.50;;;7.80;99.90;;;;;;5095311;28;20418;-54
2023/04/14 01:26:33;;;;;;;2.08;0.50;;;7.70;99.90;;;;;;5094117;28;20425;-57
2023/04/14 01:29:36;;;;;;;1.75;0.50;;;7.70;99.90;;;;;;5095620;28;20432;-56
2023/04/14 01:32:09;;;;;;;1.00;0.50;;;7.70;99.90;;;;;;5094262;28;20424;-58
2023/04/14 01:34:39;;;;;;;1.10;0.60;;;7.70;99.90;;;;;;5094590;28;20913;-58
2023/04/14 01:37:11;;;;;;;1.38;0.50;;;7.70;99.90;;;;;;5094470;28;20449;-57
2023/04/14 01:39:41;;;;;;;1.00;0.50;;;7.80;99.90;;;;;;5095360;28;20432;-57
2023/04/14 01:42:15;;;;;;;1.75;0.50;;;7.80;99.90;;;;;;5095317;28;20438;-57
2023/04/14 01:44:43;;;;;;;1.20;0.60;;;7.80;99.90;;;;;;5094989;28;20422;-60
2023/04/14 01:47:15;;;;;;;1.20;0.55;;;7.80;99.90;;;;;;5095122;28;20511;-57
2023/04/14 01:49:46;;;;;;;1.40;0.50;;;7.70;99.90;;;;;;5094837;28;20450;-57
2023/04/14 01:52:15;;;;;;;0.80;0.50;;;7.60;99.90;;;;;;5095589;28;20428;-57
2023/04/14 01:54:44;;;;;;;1.27;0.60;;;7.60;99.90;;;;;;5094658;28;20422;-55
2023/04/14 01:57:12;;;;;;;1.35;0.50;;;7.50;99.90;;;;;;5094949;28;20458;-55
2023/04/14 01:59:42;;;;;;;1.60;0.60;;;7.50;99.90;;;;;;5094894;28;20520;-55
2023/04/14 02:02:12;;;;;;;1.63;0.52;;;7.40;99.90;;;;;;5094618;28;20441;-57
2023/04/14 02:04:41;;;;;;;1.00;0.50;;;7.50;99.90;;;;;;5093114;28;20414;-57
2023/04/14 02:07:11;;;;;;;1.27;0.40;;;7.40;99.90;;;;;;5093436;28;20530;-56
2023/04/14 02:09:39;;;;;;;1.60;0.60;;;7.20;99.90;;;;;;5093587;28;20422;-55
2023/04/14 02:12:08;;;;;;;2.70;0.50;;;7.10;99.90;;;;;;5093494;28;20511;-57
2023/04/14 02:14:36;;;;;;;1.70;0.50;;;7.10;99.90;;;;;;5093456;28;20421;-58
2023/04/14 02:17:06;;;;;;;2.10;0.50;;;7.10;99.90;;;;;;5093265;28;20440;-52
2023/04/14 02:19:35;;;;;;;1.00;0.50;;;7.00;99.90;;;;;;5093044;28;20426;-54
2023/04/14 02:22:03;;;;;;;1.17;0.50;;;7.00;99.90;;;;;;5094141;28;20422;-57
2023/04/14 02:24:31;;;;;;;1.20;0.50;;;7.00;99.90;;;;;;5093281;28;20695;-55
2023/04/14 02:27:17;;;;;;;1.73;0.60;;;6.90;99.90;;;;;;5094632;28;20501;-57
2023/04/14 02:29:52;;;;;;;2.05;0.52;;;6.80;99.90;;;;;;5094977;28;20421;-57
2023/04/14 02:32:23;;;;;;;1.75;0.60;;;6.80;99.90;;;;;;5094809;28;20831;-55
2023/04/14 02:34:56;;;;;;;2.00;0.50;;;6.80;99.90;;;;;;5094302;28;20432;-56
2023/04/14 02:37:27;;;;;;;1.02;0.50;;;6.70;99.90;;;;;;5094633;28;20438;-55
2023/04/14 02:40:00;;;;;;;2.00;0.60;;;6.70;99.90;;;;;;5093275;28;20714;-56
2023/04/14 02:42:30;;;;;;;1.70;0.60;;;6.80;99.90;;;;;;5093295;28;20443;-55
2023/04/14 02:45:03;;;;;;;1.60;0.50;;;6.70;99.90;;;;;;5093355;28;20413;-57
2023/04/14 02:47:33;;;;;;;0.90;0.50;;;6.70;99.90;;;;;;5093155;28;20511;-54
2023/04/14 02:50:04;;;;;;;2.30;0.60;;;6.60;99.90;;;;;;5094491;28;20422;-51
2023/04/14 02:52:32;;;;;;;1.00;0.60;;;6.60;99.90;;;;;;5094465;28;20683;-56
2023/04/14 02:55:02;;;;;;;1.30;0.50;;;6.60;99.90;;;;;;5096328;28;20440;-57
2023/04/14 02:57:30;;;;;;;1.42;0.47;;;6.50;99.90;;;;;;5098322;28;20547;-54
2023/04/14 02:59:59;;;;;;;2.00;0.65;;;6.50;99.90;;;;;;5097408;28;20890;-55
2023/04/14 03:02:27;;;;;;;1.35;0.50;;;6.50;99.90;;;;;;5097061;28;20780;-57
2023/04/14 03:04:54;;;;;;;1.67;0.60;;;6.50;99.90;;;;;;5097016;28;20729;-57
2023/04/14 03:07:24;;;;;;;1.60;0.50;;;6.50;99.90;;;;;;5098371;28;20937;-58
2023/04/14 03:09:52;;;;;;;1.10;0.50;;;6.50;99.90;;;;;;5098324;28;20425;-54
2023/04/14 03:12:20;;;;;;;1.60;0.60;;;6.50;99.90;;;;;;5097413;28;20429;-55
2023/04/14 03:14:48;;;;;;;1.00;0.50;;;6.40;99.90;;;;;;5097322;28;20470;-56
2023/04/14 03:17:17;;;;;;;1.20;0.60;;;6.30;99.90;;;;;;5096711;28;20929;-54
2023/04/14 03:19:47;;;;;;;1.90;0.50;;;6.30;99.90;;;;;;5096899;28;20422;-56
2023/04/14 03:22:16;;;;;;;2.55;0.60;;;6.30;99.90;;;;;;5097300;28;20436;-56
2023/04/14 03:24:45;;;;;;;2.10;0.50;;;6.30;99.90;;;;;;5096055;28;20409;-56
2023/04/14 03:27:16;;;;;;;2.42;0.60;;;6.30;99.90;;;;;;5097419;28;20461;-55
2023/04/14 03:29:47;;;;;;;1.35;0.52;;;6.30;99.90;;;;;;5095298;28;20420;-55
2023/04/14 03:32:17;;;;;;;1.08;0.60;;;6.30;99.90;;;;;;5096471;28;20880;-55
2023/04/14 03:34:48;;;;;;;3.00;0.60;;;6.20;99.90;;;;;;5096852;28;20414;-56
2023/04/14 03:37:18;;;;;;;1.00;0.50;;;6.20;99.90;;;;;;5095538;28;20925;-56
2023/04/14 03:39:49;;;;;;;1.35;0.60;;;6.20;99.90;;;;;;5095542;28;20418;-56
2023/04/14 03:42:19;;;;;;;1.80;0.60;;;6.10;99.90;;;;;;5095735;28;20445;-54
2023/04/14 03:44:52;;;;;;;1.23;0.60;;;6.10;99.90;;;;;;5097070;28;20422;-57
2023/04/14 03:47:22;;;;;;;2.58;0.65;;;6.20;99.90;;;;;;5096637;28;20429;-53
2023/04/14 03:49:51;;;;;;;1.13;0.50;;;6.10;99.90;;;;;;5096895;28;20417;-54
2023/04/14 03:52:20;;;;;;;1.83;0.50;;;6.20;99.90;;;;;;5096307;28;20426;-53
2023/04/14 03:54:50;;;;;;;2.07;0.67;;;6.20;99.90;;;;;;5094109;28;20422;-53
2023/04/14 03:57:19;;;;;;;2.33;0.60;;;6.20;99.90;;;;;;5096745;28;20434;-55
2023/04/14 03:59:49;;;;;;;1.40;0.55;;;6.20;99.90;;;;;;5096746;28;20440;-53
2023/04/14 04:02:18;;;;;;;1.50;0.60;;;6.10;99.90;;;;;;5093967;28;21031;-56
2023/04/14 04:04:46;;;;;;;2.88;0.60;;;6.10;99.90;;;;;;5096700;28;20410;-53
2023/04/14 04:07:14;;;;;;;2.30;0.60;;;6.10;99.90;;;;;;5097095;28;20426;-55
2023/04/14 04:09:43;;;;;;;0.97;0.50;;;6.00;99.90;;;;;;5096395;28;20425;-55
2023/04/14 04:12:13;;;;;;;1.40;0.60;;;6.00;99.90;;;;;;5096765;28;20426;-52
2023/04/14 04:14:40;;;;;;;2.10;0.60;;;5.90;99.90;;;;;;5097253;28;20429;-52
2023/04/14 04:17:08;;;;;;;2.20;0.52;;;5.90;99.90;;;;;;5095258;28;20437;-57
2023/04/14 04:19:37;;;;;;;1.77;0.60;;;5.80;99.90;;;;;;5095914;28;20422;-54
2023/04/14 04:22:04;;;;;;;1.60;0.52;;;5.80;99.90;;;;;;5095656;28;20426;-57
2023/04/14 04:24:36;;;;;;;1.40;0.50;;;5.80;99.90;;;;;;5095427;28;20426;-57
2023/04/14 04:27:04;;;;;;;1.73;0.50;;;5.90;99.90;;;;;;5095269;28;20429;-56
2023/04/14 04:29:33;;;;;;;1.50;0.50;;;5.90;99.90;;;;;;5095952;28;20432;-56
2023/04/14 04:32:00;;;;;;;2.85;0.40;;;5.80;99.90;;;;;;5096163;28;20652;-54
2023/04/14 04:34:31;;;;;;;3.20;0.60;;;5.70;99.90;;;;;;5096721;28;20410;-50
2023/04/14 04:37:00;;;;;;;1.10;0.40;;;5.60;99.90;;;;;;5095200;28;20461;-53
2023/04/14 04:39:27;;;;;;;2.42;0.70;;;5.50;99.90;;;;;;5094637;28;20423;-56
2023/04/14 04:42:02;;;;;;;1.90;0.50;;;5.40;99.90;;;;;;5093993;28;20430;-56
2023/04/14 04:44:30;;;;;;;1.83;0.50;;;5.40;99.90;;;;;;5092881;28;20506;-52
2023/04/14 04:46:59;;;;;;;2.92;0.52;;;5.30;99.90;;;;;;5094641;28;20726;-57
2023/04/14 04:49:27;;;;;;;1.50;0.50;;;5.30;99.90;;;;;;5093295;28;20420;-57
2023/04/14 04:51:55;;;;;;;3.17;0.65;;;5.30;99.90;;;;;;5094079;28;20425;-54
2023/04/14 04:54:22;;;;;;;2.10;0.50;;;5.30;99.90;;;;;;5092858;28;20445;-53
2023/04/14 04:56:49;;;;;;;1.30;0.50;;;5.40;99.90;;;;;;5095308;28;20465;-52
2023/04/14 04:59:16;;;;;;;1.40;0.50;;;5.50;99.90;;;;;;5093856;28;20479;-54
2023/04/14 05:01:44;;;;;;;2.40;0.50;;;5.50;99.90;;;;;;5093604;28;20448;-55
2023/04/14 05:04:12;;;;;;;1.80;0.50;;;5.50;99.90;;;;;;5094178;28;20430;-52
2023/04/14 05:06:39;;;;;;;2.22;0.52;;;5.50;99.90;;;;;;5094077;28;20472;-54
2023/04/14 05:09:06;;;;;;;1.80;0.52;;;5.50;99.90;;;;;;5092407;28;20414;-53
2023/04/14 05:11:34;;;;;;;2.30;0.60;;;5.60;99.90;;;;;;5093143;28;20426;-55
2023/04/14 05:14:01;;;;;;;2.37;0.60;;;5.60;99.90;;;;;;5093137;28;20422;-53
2023/04/14 05:16:28;;;;;;;1.40;0.50;;;5.60;99.90;;;;;;5093153;28;20422;-56
2023/04/14 05:18:56;;;;;;;1.13;0.50;;;5.60;99.90;;;;;;5092249;28;20454;-53
2023/04/14 05:21:24;;;;;;;1.17;0.60;;;5.60;99.90;;;;;;5093127;28;20422;-55
2023/04/14 05:23:51;;;;;;;1.23;0.52;;;5.60;99.90;;;;;;5091730;28;20431;-53
2023/04/14 05:26:19;;;;;;;1.95;0.60;;;5.60;99.90;;;;;;5092882;28;20425;-54
2023/04/14 05:28:46;;;;;;;1.00;0.60;;;5.70;99.90;;;;;;5092593;28;20417;-57
2023/04/14 05:31:13;;;;;;;2.25;0.50;;;6.00;99.90;;;;;;5092412;28;20425;-57
2023/04/14 05:33:40;;;;;;;1.63;0.63;;;6.10;99.90;;;;;;5093935;28;20420;-55
2023/04/14 05:36:07;;;;;;;1.60;0.60;;;6.10;99.90;;;;;;5093556;28;20418;-57
2023/04/14 05:38:39;;;;;;;3.00;0.60;;;6.20;99.90;;;;;;5094586;28;20470;-57
2023/04/14 05:41:07;;;;;;;1.70;0.60;;;6.20;99.90;;;;;;5094452;28;20429;-57
2023/04/14 05:43:34;;;;;;;1.50;0.60;;;6.20;99.90;;;;;;5093933;28;20487;-57
2023/04/14 05:46:01;;;;;;;1.80;0.60;;;6.20;99.90;;;;;;5093024;28;20417;-58
2023/04/14 05:48:29;;;;;;;1.70;0.77;;;6.30;99.90;;;;;;5093106;28;20424;-57
2023/04/14 05:50:57;;;;;;;3.33;0.60;;;6.30;99.90;;;;;;5091658;28;20813;-58
2023/04/14 05:53:24;;;;;;;3.20;0.68;;;6.40;99.90;;;;;;5094550;28;20433;-57
2023/04/14 05:55:53;;;;;;;2.30;0.50;;;6.60;99.90;;;;;;5092596;28;20418;-57
2023/04/14 05:58:21;;;;;;;1.50;0.52;;;6.70;99.90;;;;;;5091960;28;20437;-56
2023/04/14 06:00:50;;;;;;;3.10;0.60;;;6.80;99.90;;;;;;5093086;28;20417;-57
2023/04/14 06:03:18;;;;;;;1.20;0.57;;;6.90;99.90;;;;;;5094584;28;20730;-57
2023/04/14 06:05:47;;;;;;;1.30;0.50;;;6.80;99.90;;;;;;5094352;28;20433;-56
2023/04/14 06:08:14;;;;;;;2.70;0.70;;;7.00;99.90;;;;;;5092713;28;20480;-57
2023/04/14 06:10:41;;;;;;;1.38;0.60;;;7.20;99.90;;;;;;5094281;28;20426;-58
2023/04/14 06:13:10;;;;;;;2.72;0.70;;;7.40;99.90;;;;;;5095861;28;20431;-57
2023/04/14 06:15:38;;;;;;;1.80;0.60;;;7.30;99.90;;;;;;5107478;28;20416;-59
2023/04/14 06:18:05;;;;;;;1.80;0.70;;;7.30;99.90;;;;;;5112694;28;20893;-57
2023/04/14 06:20:33;;;;;;;2.33;0.90;;;7.40;99.90;;;;;;5097992;28;20429;-54
2023/04/14 06:23:00;;;;;;;2.30;0.80;;;7.30;99.90;;;;;;5092414;28;20433;-55
2023/04/14 06:25:27;;;;;;;2.70;0.80;;;7.20;99.90;;;;;;5091990;28;20879;-52
2023/04/14 06:27:54;;;;;;;1.63;0.90;;;7.20;99.90;;;;;;5093943;28;20753;-54
2023/04/14 06:30:23;;;;;;;1.90;0.80;;;7.00;99.90;;;;;;5091042;28;20521;-53
2023/04/14 06:32:52;;;;;;;2.45;0.90;;;7.00;99.90;;;;;;5093514;28;20436;-53
2023/04/14 06:35:19;;;;;;;2.33;0.80;;;7.00;99.90;;;;;;5092812;28;20467;-53
2023/04/14 06:37:47;;;;;;;5.13;2.60;;;7.00;99.90;;;;;;5091917;28;20430;-53
2023/04/14 06:40:14;;;;;;;1.50;1.08;;;7.00;99.90;;;;;;5090516;28;20805;-56
2023/04/14 06:42:41;;;;;;;3.10;0.90;;;7.10;99.90;;;;;;5092180;28;20426;-53
2023/04/14 06:45:09;;;;;;;1.40;0.80;;;7.20;99.90;;;;;;5091533;28;20722;-55
2023/04/14 06:47:38;;;;;;;2.30;1.00;;;7.30;99.90;;;;;;5091042;28;20521;-53
2023/04/14 06:50:06;;;;;;;1.88;0.90;;;7.40;99.90;;;;;;5090380;28;20440;-55
2023/04/14 06:52:33;;;;;;;1.90;0.90;;;7.50;99.90;;;;;;5092095;28;20468;-56
2023/04/14 06:55:00;;;;;;;2.00;0.80;;;7.50;99.90;;;;;;5093380;28;20410;-55
2023/04/14 06:57:27;;;;;;;2.50;0.80;;;7.70;99.90;;;;;;5091181;28;20434;-55
2023/04/14 06:59:55;;;;;;;1.95;0.80;;;7.80;99.90;;;;;;5050146;28;20421;-55
2023/04/14 07:02:22;;;;;;;3.47;0.70;;;7.90;99.90;;;;;;5047439;28;20435;-55
2023/04/14 07:04:51;;;;;;;1.17;0.70;;;8.00;99.90;;;;;;5050343;28;20429;-56
2023/04/14 07:07:18;;;;;;;3.00;0.80;;;8.00;99.90;;;;;;5051423;28;20449;-57
2023/04/14 07:09:45;;;;;;;2.75;0.70;;;8.20;99.90;;;;;;5050134;28;20428;-54
2023/04/14 07:12:14;;;;;;;3.70;0.70;;;8.30;99.90;;;;;;5050024;28;20887;-57
2023/04/14 07:14:49;;;;;;;1.40;0.60;;;8.40;99.90;;;;;;5051108;28;20429;-56
2023/04/14 07:17:18;;;;;;;2.37;0.80;;;8.40;99.90;;;;;;5052369;28;20452;-55
2023/04/14 07:19:47;;;;;;;2.30;0.80;;;8.50;99.90;;;;;;5051568;28;20516;-57
2023/04/14 07:22:17;;;;;;;1.30;0.60;;;8.60;99.90;;;;;;5052652;28;20821;-58
2023/04/14 07:24:45;;;;;;;2.83;0.73;;;8.80;99.90;;;;;;5051511;28;20433;-54
2023/04/14 07:27:13;;;;;;;1.80;0.80;;;8.80;99.90;;;;;;5052195;28;20425;-55
2023/04/14 07:29:42;;;;;;;2.00;1.15;;;9.00;99.90;;;;;;5051942;28;20867;-51
2023/04/14 07:32:10;;;;;;;2.60;0.80;;;9.00;99.90;;;;;;5050810;28;20732;-53
2023/04/14 07:34:38;;;;;;;1.53;0.80;;;9.10;99.90;;;;;;5052588;28;20483;-55
2023/04/14 07:37:05;;;;;;;2.22;0.73;;;9.20;99.90;;;;;;5054997;28;20441;-56
2023/04/14 07:39:34;;;;;;;2.50;0.70;;;9.20;99.90;;;;;;5055692;28;20459;-54
2023/04/14 07:42:01;;;;;;;2.80;0.73;;;9.40;99.90;;;;;;5073286;28;20431;-57
2023/04/14 07:44:28;;;;;;;3.20;0.77;;;9.40;99.90;;;;;;5073823;28;20427;-53
2023/04/14 07:46:55;;;;;;;1.30;0.70;;;9.40;99.90;;;;;;5055852;28;20437;-54
2023/04/14 07:49:22;;;;;;;2.80;0.80;;;9.40;99.90;;;;;;5053731;28;20433;-52
2023/04/14 07:51:49;;;;;;;2.70;0.80;;;9.40;99.90;;;;;;5053372;28;20737;-53
2023/04/14 07:54:16;;;;;;;2.60;0.70;;;9.40;99.90;;;;;;5062202;28;20471;-52
2023/04/14 07:56:45;;;;;;;2.78;0.70;;;9.60;99.90;;;;;;5054478;28;20459;-53
2023/04/14 07:59:12;;;;;;;1.00;0.50;;;9.70;99.90;;;;;;5101664;28;20762;-54
2023/04/14 08:01:39;;;;;;;0.90;0.30;;;9.70;99.90;;;;;;5113317;28;20431;-52
2023/04/14 08:04:07;;;;;;;2.30;0.40;;;9.80;99.90;;;;;;5116271;28;20432;-51
2023/04/14 08:06:34;;;;;;;1.30;0.30;;;10.00;99.90;;;;;;5116066;28;20424;-50
2023/04/14 08:09:01;;;;;;;1.00;0.30;;;10.10;99.90;;;;;;5112205;28;20877;-51
2023/04/14 08:11:28;;;;;;;0.88;0.30;;;10.20;99.90;;;;;;5113172;28;20428;-50
2023/04/14 08:13:56;;;;;;;1.90;0.40;;;10.30;99.90;;;;;;5113684;28;20419;-51
2023/04/14 08:16:24;;;;;;;1.50;0.50;;;10.50;99.90;;;;;;5112476;28;20424;-52
2023/04/14 08:18:52;;;;;;;2.88;0.80;;;10.60;99.90;;;;;;5110986;28;20579;-51
2023/04/14 08:21:19;;;;;;;1.97;0.70;;;10.70;99.90;;;;;;5112208;28;20412;-52
2023/04/14 08:23:47;;;;;;;1.73;0.60;;;10.80;99.90;;;;;;5112038;28;20412;-53
2023/04/14 08:26:14;;;;;;;2.38;0.70;;;10.70;99.90;;;;;;5111192;28;20409;-54
2023/04/14 08:28:41;;;;;;;1.27;0.60;;;10.80;99.90;;;;;;5111036;28;20681;-51
2023/04/14 08:31:10;;;;;;;1.08;0.30;;;10.90;99.90;;;;;;5111675;28;20770;-48
2023/04/14 08:33:38;;;;;;;1.20;0.30;;;10.90;99.90;;;;;;5109872;28;20416;-53
2023/04/14 08:36:05;;;;;;;1.43;0.30;;;11.00;99.90;;;;;;5092974;28;20421;-53
2023/04/14 08:38:32;;;;;;;0.88;0.20;;;11.20;99.90;;;;;;5092026;28;20422;-57
2023/04/14 08:41:04;;;;;;;0.93;0.30;;;11.20;99.90;;;;;;5104950;28;20418;-51
2023/04/14 08:43:31;;;;;;;0.52;0.30;;;11.20;99.90;;;;;;5111923;28;20512;-50
2023/04/14 08:46:00;;;;;;;1.25;0.25;;;11.30;99.90;;;;;;5101210;28;20429;-52
2023/04/14 08:48:31;;;;;;;1.40;0.30;;;11.50;99.90;;;;;;5092454;28;20494;-50
2023/04/14 08:51:07;;;;;;;1.58;0.30;;;11.40;99.90;;;;;;5091254;28;20505;-51
2023/04/14 08:53:41;;;;;;;1.20;0.40;;;11.40;99.90;;;;;;5090945;28;20602;-50
2023/04/14 08:56:11;;;;;;;1.00;0.30;;;11.40;99.90;;;;;;5092213;28;20458;-50
2023/04/14 08:58:38;;;;;;;0.70;0.30;;;11.40;99.90;;;;;;5091740;28;20426;-53
2023/04/14 09:01:06;;;;;;;1.02;0.30;;;11.60;99.90;;;;;;5092007;28;20428;-51
2023/04/14 09:03:35;;;;;;;0.87;0.40;;;11.60;99.90;;;;;;5092740;28;20479;-53
2023/04/14 09:06:05;;;;;;;0.60;0.30;;;11.50;99.90;;;;;;5089701;28;20859;-54
2023/04/14 09:08:33;;;;;;;1.50;0.30;;;11.20;99.90;;;;;;5092187;28;20590;-52
2023/04/14 09:11:01;;;;;;;1.20;0.40;;;11.20;99.90;;;;;;5092816;28;20421;-52
2023/04/14 09:13:29;;;;;;;1.00;0.30;;;11.10;99.90;;;;;;5087933;28;20414;-52
2023/04/14 09:16:00;;;;;;;0.93;0.30;;;11.20;99.90;;;;;;5090932;28;20414;-49
2023/04/14 09:18:30;;;;;;;0.60;0.38;;;11.30;99.90;;;;;;5091991;28;20433;-51
2023/04/14 09:20:58;;;;;;;1.25;0.40;;;11.30;99.90;;;;;;5091865;28;20796;-48
2023/04/14 09:23:25;;;;;;;3.30;0.40;;;11.20;99.90;;;;;;5091029;28;20434;-50
2023/04/14 09:25:53;;;;;;;2.05;0.60;;;11.20;99.90;;;;;;5093938;28;20441;-51
2023/04/14 09:28:20;;;;;;;1.30;0.30;;;11.40;99.90;;;;;;5092488;28;20429;-54
2023/04/14 09:30:47;;;;;;;1.00;0.30;;;11.80;99.90;;;;;;5093948;28;20441;-52
2023/04/14 09:33:22;;;;;;;2.50;0.30;;;12.00;99.90;;;;;;5110749;28;20709;-52
2023/04/14 09:35:50;;;;;;;1.30;0.40;;;11.90;99.90;;;;;;5106191;28;20436;-54
2023/04/14 09:38:32;;;;;;;1.00;0.30;;;11.70;99.90;;;;;;5092555;28;20428;-51
2023/04/14 09:41:00;;;;;;;0.80;0.30;;;11.80;99.90;;;;;;5101931;28;20420;-52
2023/04/14 09:43:28;;;;;;;1.50;0.30;;;12.00;99.90;;;;;;5106289;28;20793;-49
2023/04/14 09:45:56;;;;;;;2.60;0.40;;;12.20;99.90;;;;;;5103206;28;20427;-51
2023/04/14 09:48:24;;;;;;;3.35;0.40;;;12.40;99.90;;;;;;5111488;28;20435;-48
2023/04/14 09:51:04;;;;;;;1.63;0.40;;;12.60;99.90;;;;;;5107505;28;20816;-49
2023/04/14 09:53:35;;;;;;;1.05;0.40;;;12.60;99.90;;;;;;5110124;28;20499;-51
2023/04/14 09:56:03;;;;;;;1.80;0.30;;;12.70;99.90;;;;;;5112064;28;20431;-50
2023/04/14 09:58:31;;;;;;;0.70;0.40;;;12.70;99.90;;;;;;5092084;28;20643;-51
2023/04/14 10:00:59;;;;;;;1.17;0.30;;;12.50;99.90;;;;;;5090192;28;20707;-51
2023/04/14 10:03:34;;;;;;;1.27;0.30;;;12.60;99.90;;;;;;5090874;28;20899;-48
2023/04/14 10:06:03;;;;;;;1.10;0.30;;;12.90;99.90;;;;;;5090689;28;20846;-51
2023/04/14 10:08:39;;;;;;;1.27;0.40;;;12.90;99.90;;;;;;5089938;28;20866;-51
2023/04/14 10:11:18;;;;;;;1.00;0.40;;;13.20;99.90;;;;;;5089314;28;20857;-49
2023/04/14 10:13:45;;;;;;;1.30;0.40;;;13.40;99.90;;;;;;5091658;28;20422;-52
2023/04/14 10:16:13;;;;;;;0.90;0.40;;;13.50;99.90;;;;;;5089528;28;20734;-53
2023/04/14 10:18:40;;;;;;;1.40;0.40;;;13.50;99.90;;;;;;5091752;28;21059;-51
2023/04/14 10:21:09;;;;;;;0.70;0.35;;;13.80;99.90;;;;;;5103865;28;20408;-50
2023/04/14 10:23:40;;;;;;;1.80;0.40;;;13.70;99.90;;;;;;5111725;28;20413;-51
2023/04/14 10:26:08;;;;;;;1.60;0.30;;;13.30;99.90;;;;;;5111181;28;20419;-54
2023/04/14 10:28:36;;;;;;;2.13;0.50;;;13.50;99.90;;;;;;5112477;28;20423;-53
2023/04/14 10:31:07;;;;;;;1.27;0.40;;;13.40;99.90;;;;;;5108866;28;20417;-51
2023/04/14 10:33:36;;;;;;;1.00;0.40;;;13.60;99.90;;;;;;5107478;28;20459;-51
2023/04/14 10:36:04;;;;;;;1.10;0.40;;;14.10;99.90;;;;;;5111222;28;20420;-57
2023/04/14 10:38:41;;;;;;;1.77;0.40;;;14.70;99.90;;;;;;5109348;28;20445;-55
2023/04/14 10:41:08;;;;;;;1.20;0.40;;;15.10;99.90;;;;;;5110619;28;20477;-56
2023/04/14 10:43:36;;;;;;;0.80;0.30;;;15.30;99.90;;;;;;5103911;28;20440;-53
2023/04/14 10:46:05;;;;;;;1.77;0.40;;;15.50;99.90;;;;;;5088937;28;20434;-56
2023/04/14 10:48:37;;;;;;;0.90;0.40;;;15.70;98.30;;;;;;5091659;28;20917;-57
2023/04/14 10:51:06;;;;;;;2.00;0.30;;;15.40;97.10;;;;;;5092701;28;20426;-54
2023/04/14 10:53:39;;;;;;;1.40;0.40;;;15.30;95.40;;;;;;5090342;28;20790;-56
2023/04/14 10:56:06;;;;;;;1.10;0.32;;;15.40;94.10;;;;;;5090684;28;20772;-56
2023/04/14 10:58:37;;;;;;;1.10;0.30;;;15.60;96.80;;;;;;5093248;28;22163;-57
2023/04/14 11:01:24;;;;;;;1.00;0.30;;;15.80;93.20;;;;;;5099785;28;20437;-57
2023/04/14 11:03:52;;;;;;;0.68;0.30;;;16.30;92.70;;;;;;5097438;28;20412;-55
2023/04/14 11:06:51;;;;;;;0.70;0.30;;;16.50;91.50;;;;;;5087015;28;20869;-53
2023/04/14 11:09:35;;;;;;;2.20;0.40;;;16.50;90.20;;;;;;5080510;28;20417;-56
2023/04/14 11:12:23;;;;;;;0.63;0.30;;;16.80;90.20;;;;;;5108473;28;20444;-54
2023/04/14 11:14:54;;;;;;;0.80;0.30;;;16.10;85.00;;;;;;5110124;28;20463;-56
2023/04/14 11:17:22;;;;;;;0.90;0.40;;;16.70;87.50;;;;;;5103019;28;20421;-55
2023/04/14 11:19:53;;;;;;;2.40;0.37;;;16.90;85.50;;;;;;5090800;28;20429;-55
2023/04/14 11:22:40;;;;;;;1.00;0.30;;;17.20;86.80;;;;;;5095008;28;20413;-55
2023/04/14 11:25:12;;;;;;;1.00;0.40;;;17.10;83.70;;;;;;5095309;28;20757;-55
2023/04/14 11:27:39;;;;;;;0.70;0.30;;;17.00;82.80;;;;;;5094492;28;20432;-53
2023/04/14 11:30:08;;;;;;;0.80;0.30;;;16.80;82.10;;;;;;5095308;28;20433;-53
2023/04/14 11:32:46;;;;;;;0.60;0.30;;;16.50;82.10;;;;;;5095457;28;20771;-53
2023/04/14 11:35:13;;;;;;;2.13;0.30;;;16.60;83.50;;;;;;5094724;28;20440;-55
2023/04/14 11:37:41;;;;;;;0.80;0.30;;;16.50;80.70;;;;;;5100378;28;20425;-52
2023/04/14 11:40:11;;;;;;;1.00;0.30;;;16.80;76.00;;;;;;5101732;28;20834;-54
2023/04/14 11:42:38;;;;;;;1.10;0.30;;;16.90;79.00;;;;;;5099687;28;20456;-54
2023/04/14 11:45:07;;;;;;;0.95;0.30;;;17.30;78.90;;;;;;5104104;28;20440;-54
2023/04/14 11:47:34;;;;;;;1.00;0.30;;;17.70;76.00;;;;;;5097390;28;20547;-53
2023/04/14 11:50:06;;;;;;;0.70;0.30;;;18.00;75.60;;;;;;5095522;28;20437;-54
2023/04/14 11:52:34;;;;;;;1.60;0.43;;;17.90;70.40;;;;;;5102244;28;20751;-55
2023/04/14 11:55:04;;;;;;;1.35;0.30;;;17.10;72.10;;;;;;5100990;28;20428;-53
2023/04/14 11:57:33;;;;;;;1.00;0.37;;;16.40;72.80;;;;;;5109163;28;20443;-56
2023/04/14 12:00:00;;;;;;;1.67;0.47;;;16.00;73.60;;;;;;5095813;28;20451;-55
2023/04/14 12:02:27;;;;;;;1.50;0.30;;;15.80;72.40;;;;;;5105394;28;20443;-53
2023/04/14 12:04:54;;;;;;;0.93;0.30;;;15.60;78.90;;;;;;5095605;28;20433;-56
2023/04/14 12:07:23;;;;;;;1.60;0.30;;;16.30;78.20;;;;;;5100911;28;20744;-58
2023/04/14 12:09:51;;;;;;;1.20;0.30;;;17.10;74.50;;;;;;5099314;28;20436;-55
2023/04/14 12:12:20;;;;;;;1.42;0.60;;;17.10;73.70;;;;;;5094654;28;20421;-56
2023/04/14 12:14:49;;;;;;;0.70;0.30;;;17.60;72.80;;;;;;5097931;28;20441;-58
2023/04/14 12:17:19;;;;;;;0.80;0.30;;;18.00;68.50;;;;;;5105720;28;20416;-57
2023/04/14 12:19:46;;;;;;;0.80;0.30;;;18.10;64.40;;;;;;5101372;28;20538;-56
2023/04/14 12:22:13;;;;;;;1.60;0.30;;;18.00;63.60;;;;;;5111721;28;20420;-58
2023/04/14 12:24:41;;;;;;;0.60;0.30;;;17.50;67.00;;;;;;5097885;28;20487;-56
2023/04/14 12:27:09;;;;;;;0.90;0.30;;;17.00;65.60;;;;;;5096821;28;20492;-56
2023/04/14 12:29:37;;;;;;;0.80;0.30;;;16.60;68.00;;;;;;5104718;28;20871;-57
2023/04/14 12:32:12;;;;;;;1.10;0.40;;;16.30;69.80;;;;;;5103494;28;20497;-55
2023/04/14 12:34:39;;;;;;;0.80;0.30;;;16.00;67.80;;;;;;5113709;28;20431;-58
2023/04/14 12:37:08;;;;;;;0.70;0.20;;;15.80;73.20;;;;;;5109821;28;20920;-55
2023/04/14 12:39:50;;;;;;;0.80;0.30;;;15.90;70.40;;;;;;5100577;28;20435;-57
2023/04/14 12:42:17;;;;;;;1.40;0.30;;;15.90;69.30;;;;;;5093806;28;20481;-58
2023/04/14 12:44:54;;;;;;;0.98;0.30;;;15.90;66.40;;;;;;5104151;28;20493;-58
2023/04/14 12:47:33;;;;;;;0.68;0.20;;;15.70;66.80;;;;;;5113823;28;20424;-56
2023/04/14 12:50:21;;;;;;;0.60;0.30;;;15.90;68.50;;;;;;5108887;28;20428;-58
2023/04/14 12:52:48;;;;;;;0.90;0.30;;;16.30;65.50;;;;;;5111391;28;20412;-58
2023/04/14 12:55:21;;;;;;;0.60;0.30;;;16.50;62.30;;;;;;5109690;28;20462;-56
2023/04/14 12:57:48;;;;;;;0.65;0.30;;;16.50;65.10;;;;;;5113619;28;20420;-55
2023/04/14 13:00:15;;;;;;;0.60;0.30;;;16.60;63.50;;;;;;5102292;28;20740;-57
2023/04/14 13:02:44;;;;;;;0.80;0.30;;;16.50;62.10;;;;;;5092870;28;20452;-57
2023/04/14 13:05:12;;;;;;;1.00;0.30;;;16.20;61.10;;;;;;5099564;28;20432;-58